Time;durP1;ratioP1;P1;durP2;ratioP2;P2;SDS_P1;SDS_P2;PMS_P1;PMS_P2;Temp;Humidity;BMP_temperature;BMP_pressure;BME280_temperature;BME280_humidity;BME280_pressure;Samples;Min_cycle;Max_cycle;Signal;HPM_P1;HPM_P2
2022/10/09 00:01:28;;;;;;;6.50;2.85;;;;;;;7.99;100.00;102483.72;4915122;29;20047;-76
2022/10/09 00:03:58;;;;;;;5.80;3.30;;;;;;;7.98;100.00;102489.81;4885596;29;20071;-77
2022/10/09 00:06:30;;;;;;;9.23;2.92;;;;;;;7.98;100.00;102487.19;4901484;29;20047;-77
2022/10/09 00:09:02;;;;;;;8.43;2.92;;;;;;;7.98;100.00;102495.06;4911289;29;20451;-77
2022/10/09 00:11:32;;;;;;;11.90;3.60;;;;;;;7.98;100.00;102500.31;4906640;29;20058;-77
2022/10/09 00:14:02;;;;;;;12.50;3.15;;;;;;;7.97;100.00;102495.91;4877710;29;20047;-76
2022/10/09 00:16:31;;;;;;;8.00;3.13;;;;;;;7.97;100.00;102501.13;4890917;29;20044;-77
2022/10/09 00:18:59;;;;;;;12.00;3.20;;;;;;;7.97;100.00;102493.28;4910515;29;20052;-76
2022/10/09 00:21:31;;;;;;;11.80;3.88;;;;;;;7.98;100.00;102502.94;4886648;29;20048;-78
2022/10/09 00:24:01;;;;;;;8.10;2.60;;;;;;;7.96;100.00;102500.25;4915021;29;20043;-76
2022/10/09 00:26:30;;;;;;;12.30;2.80;;;;;;;7.96;100.00;102500.25;4911283;29;20038;-78
2022/10/09 00:28:59;;;;;;;12.82;3.20;;;;;;;7.95;100.00;102506.31;4883997;29;20039;-76
2022/10/09 00:31:28;;;;;;;13.00;3.47;;;;;;;7.95;100.00;102502.81;4894703;29;20062;-76
2022/10/09 00:33:56;;;;;;;12.43;3.40;;;;;;;7.93;100.00;102497.50;4898465;29;20055;-76
2022/10/09 00:36:25;;;;;;;10.13;2.97;;;;;;;7.93;100.00;102501.84;4924922;29;20043;-77
2022/10/09 00:38:54;;;;;;;10.00;2.90;;;;;;;7.94;100.00;102506.25;4895490;29;20040;-77
2022/10/09 00:41:27;;;;;;;5.68;2.72;;;;;;;7.95;100.00;102497.56;4913850;29;20055;-76
2022/10/09 00:43:57;;;;;;;7.07;3.20;;;;;;;7.95;100.00;102506.31;4905934;29;20063;-76
2022/10/09 00:46:28;;;;;;;8.50;3.13;;;;;;;7.96;100.00;102499.38;4911732;29;20036;-76
2022/10/09 00:49:09;;;;;;;8.88;2.95;;;;;;;7.94;100.00;102496.69;4915909;29;20047;-76
2022/10/09 00:51:38;;;;;;;8.50;3.75;;;;;;;7.95;100.00;102502.81;4903728;29;20070;-77
2022/10/09 00:54:09;;;;;;;9.88;2.95;;;;;;;7.95;100.00;102498.44;4915658;29;20035;-77
2022/10/09 00:56:37;;;;;;;7.60;2.55;;;;;;;7.94;100.00;102498.38;4938566;28;20058;-76
2022/10/09 00:59:07;;;;;;;6.15;2.92;;;;;;;7.92;100.00;102502.69;4898700;29;20055;-77
2022/10/09 01:01:36;;;;;;;7.20;3.10;;;;;;;7.92;100.00;102508.84;4880242;29;20544;-77
2022/10/09 01:04:04;;;;;;;9.20;3.03;;;;;;;7.92;100.00;102508.84;4898303;29;20129;-77
2022/10/09 01:06:59;;;;;;;8.60;2.97;;;;;;;7.91;100.00;102509.66;4903317;29;20254;-76
2022/10/09 01:09:46;;;;;;;5.68;2.80;;;;;;;7.93;100.00;102512.34;4919271;29;20052;-76
2022/10/09 01:12:27;;;;;;;12.07;4.03;;;;;;;7.96;100.00;102509.88;4928865;29;20044;-77
2022/10/09 01:15:02;;;;;;;6.10;2.90;;;;;;;7.98;100.00;102509.09;4887071;29;20505;-77
2022/10/09 01:17:33;;;;;;;10.27;2.83;;;;;;;7.98;100.00;102506.47;4894390;29;20063;-76
2022/10/09 01:20:21;;;;;;;5.63;2.95;;;;;;;7.98;100.00;102509.09;4915553;29;20421;-76
2022/10/09 01:22:58;;;;;;;8.27;2.58;;;;;;;7.98;100.00;102508.19;4923288;29;20497;-77
2022/10/09 01:26:13;;;;;;;5.38;2.20;;;;;;;7.96;100.00;102504.63;4910852;29;20047;-77
2022/10/09 01:28:50;;;;;;;6.10;2.72;;;;;;;7.96;100.00;102505.50;4917292;29;21117;-76
2022/10/09 01:31:20;;;;;;;7.05;3.30;;;;;;;7.96;100.00;102500.25;4887454;29;20048;-76
2022/10/09 01:33:49;;;;;;;7.82;2.15;;;;;;;7.95;100.00;102494.94;4928427;29;20162;-76
2022/10/09 01:36:20;;;;;;;12.35;3.53;;;;;;;7.96;100.00;102495.00;4928732;29;20036;-77
2022/10/09 01:38:49;;;;;;;4.68;2.40;;;;;;;7.97;100.00;102498.53;4907273;29;20044;-76
2022/10/09 01:41:19;;;;;;;8.20;2.95;;;;;;;7.96;100.00;102495.00;4896493;29;20040;-77
2022/10/09 01:43:48;;;;;;;10.30;3.00;;;;;;;7.97;100.00;102503.78;4896699;29;20283;-77
2022/10/09 01:46:16;;;;;;;8.15;2.85;;;;;;;7.96;100.00;102494.13;4885882;29;20049;-77
2022/10/09 01:49:25;;;;;;;10.88;3.15;;;;;;;7.95;100.00;102489.69;4908104;28;20361;-77
2022/10/09 01:52:04;;;;;;;12.38;3.20;;;;;;;7.94;100.00;102486.19;4899299;29;20505;-76
2022/10/09 01:55:00;;;;;;;10.60;3.10;;;;;;;7.94;100.00;102485.25;4913375;29;20086;-77
2022/10/09 01:57:39;;;;;;;8.18;3.15;;;;;;;7.93;100.00;102488.72;4898019;29;20063;-77
2022/10/09 02:00:11;;;;;;;11.52;3.72;;;;;;;7.91;100.00;102483.41;4913591;29;20048;-77
2022/10/09 02:02:41;;;;;;;8.55;3.13;;;;;;;7.89;100.00;102487.72;4877543;29;20263;-77
2022/10/09 02:05:13;;;;;;;15.93;3.63;;;;;;;7.89;100.00;102486.81;4914984;29;20040;-77
2022/10/09 02:07:42;;;;;;;10.95;2.83;;;;;;;7.88;100.00;102485.03;4893848;29;20178;-77
2022/10/09 02:10:12;;;;;;;7.22;2.58;;;;;;;7.88;100.00;102490.28;4882047;29;20043;-77
2022/10/09 02:12:49;;;;;;;6.00;2.55;;;;;;;7.87;100.00;102491.13;4878428;29;20040;-77
2022/10/09 02:15:19;;;;;;;8.93;3.33;;;;;;;7.84;100.00;102484.00;4912856;29;20051;-78
2022/10/09 02:17:53;;;;;;;6.75;3.20;;;;;;;7.80;100.00;102477.72;4875535;29;20907;-77
2022/10/09 02:20:30;;;;;;;7.68;2.88;;;;;;;7.78;100.00;102479.38;4914753;29;20055;-76
2022/10/09 02:23:03;;;;;;;11.18;2.92;;;;;;;7.76;100.00;102483.69;4910238;29;20044;-77
2022/10/09 02:25:34;;;;;;;7.07;2.92;;;;;;;7.75;100.00;102489.78;4916522;29;20167;-76
2022/10/09 02:28:04;;;;;;;6.30;2.45;;;;;;;7.73;100.00;102483.59;4898387;29;20056;-77
2022/10/09 02:30:47;;;;;;;9.13;3.20;;;;;;;7.71;100.00;102477.38;4906629;29;20075;-76
2022/10/09 02:33:15;;;;;;;11.57;3.30;;;;;;;7.70;100.00;102485.19;4877509;29;20051;-77
2022/10/09 02:35:44;;;;;;;15.43;3.15;;;;;;;7.69;100.00;102486.88;4873772;29;20040;-77
2022/10/09 02:38:12;;;;;;;8.55;3.28;;;;;;;7.68;100.00;102490.34;4910894;29;20039;-76
2022/10/09 02:40:40;;;;;;;11.13;2.50;;;;;;;7.66;100.00;102476.28;4891965;29;20154;-76
2022/10/09 02:43:09;;;;;;;5.75;2.45;;;;;;;7.65;100.00;102487.59;4895603;29;20066;-76
2022/10/09 02:45:37;;;;;;;8.68;3.65;;;;;;;7.64;100.00;102474.41;4906353;29;20285;-76
2022/10/09 02:48:06;;;;;;;8.93;2.83;;;;;;;7.61;100.00;102483.94;4842661;29;20066;-76
2022/10/09 02:50:35;;;;;;;5.38;2.65;;;;;;;7.60;100.00;102476.03;4882432;29;20052;-76
2022/10/09 02:53:03;;;;;;;8.15;2.97;;;;;;;7.58;100.00;102481.22;4910435;29;20055;-77
2022/10/09 02:55:31;;;;;;;6.60;2.90;;;;;;;7.57;100.00;102478.53;4922506;29;20048;-76
2022/10/09 02:58:00;;;;;;;9.27;2.75;;;;;;;7.55;100.00;102480.19;4890231;29;20051;-76
2022/10/09 03:00:28;;;;;;;4.63;2.63;;;;;;;7.53;100.00;102477.50;4924193;29;20067;-76
2022/10/09 03:02:56;;;;;;;6.75;2.67;;;;;;;7.54;100.00;102488.88;4862023;29;20354;-76
2022/10/09 03:05:25;;;;;;;6.13;2.50;;;;;;;7.51;100.00;102483.53;4924830;29;20137;-78
2022/10/09 03:07:54;;;;;;;9.02;3.30;;;;;;;7.50;100.00;102486.97;4896346;29;20052;-76
2022/10/09 03:10:22;;;;;;;6.38;2.65;;;;;;;7.48;100.00;102478.13;4916693;29;20059;-76
2022/10/09 03:12:50;;;;;;;9.27;2.60;;;;;;;7.47;100.00;102478.97;4908240;29;20182;-76
2022/10/09 03:15:19;;;;;;;8.75;2.53;;;;;;;7.46;100.00;102485.03;4902089;29;20059;-76
2022/10/09 03:17:47;;;;;;;11.18;2.88;;;;;;;7.45;100.00;102489.41;4907926;29;20165;-77
2022/10/09 03:20:16;;;;;;;9.00;2.88;;;;;;;7.44;100.00;102479.72;4857603;29;20036;-76
2022/10/09 03:22:44;;;;;;;7.18;2.83;;;;;;;7.43;100.00;102488.44;4875458;29;20277;-77
2022/10/09 03:25:13;;;;;;;6.82;2.75;;;;;;;7.42;100.00;102479.66;4909861;29;20047;-78
2022/10/09 03:27:41;;;;;;;12.23;3.55;;;;;;;7.41;100.00;102477.88;4889269;29;20767;-77
2022/10/09 03:30:10;;;;;;;8.85;2.83;;;;;;;7.41;100.00;102487.50;4888974;29;20044;-77
2022/10/09 03:32:38;;;;;;;5.40;2.55;;;;;;;7.39;100.00;102487.41;4905746;29;20275;-77
2022/10/09 03:35:07;;;;;;;8.68;2.80;;;;;;;7.38;100.00;102492.59;4892212;29;20423;-76
2022/10/09 03:37:35;;;;;;;5.38;2.90;;;;;;;7.36;100.00;102479.41;4888937;29;20043;-76
2022/10/09 03:40:04;;;;;;;9.73;3.05;;;;;;;7.34;100.00;102483.69;4913046;29;20404;-76
2022/10/09 03:42:32;;;;;;;8.38;3.83;;;;;;;7.33;100.00;102484.50;4882519;29;20571;-76
2022/10/09 03:45:03;;;;;;;8.68;2.60;;;;;;;7.31;100.00;102478.31;4919261;29;20056;-76
2022/10/09 03:47:31;;;;;;;7.65;3.33;;;;;;;7.30;100.00;102483.50;4904688;29;20551;-77
2022/10/09 03:50:00;;;;;;;4.93;2.78;;;;;;;7.29;100.00;102484.34;4893114;29;20048;-77
2022/10/09 03:52:28;;;;;;;8.35;3.30;;;;;;;7.29;100.00;102477.34;4843648;29;20052;-77
2022/10/09 03:54:57;;;;;;;6.32;3.40;;;;;;;7.29;100.00;102482.59;4908719;29;20047;-76
2022/10/09 03:57:25;;;;;;;11.90;3.40;;;;;;;7.29;100.00;102481.72;4889187;29;20055;-77
2022/10/09 03:59:53;;;;;;;10.63;3.25;;;;;;;7.28;100.00;102490.38;4894924;29;20051;-77
2022/10/09 04:02:22;;;;;;;9.10;3.15;;;;;;;7.25;100.00;102480.69;4894725;29;20440;-77
2022/10/09 04:04:50;;;;;;;8.57;3.20;;;;;;;7.25;100.00;102490.28;4877693;29;20040;-77
2022/10/09 04:07:19;;;;;;;9.95;3.55;;;;;;;7.23;100.00;102492.81;4858215;29;20282;-77
2022/10/09 04:09:47;;;;;;;6.93;3.08;;;;;;;7.22;100.00;102488.41;4895703;29;20048;-77
2022/10/09 04:12:16;;;;;;;5.43;3.28;;;;;;;7.20;100.00;102495.31;4890004;29;20624;-76
2022/10/09 04:14:45;;;;;;;10.65;3.40;;;;;;;7.19;100.00;102490.91;4934709;29;20058;-77
2022/10/09 04:17:13;;;;;;;8.60;3.20;;;;;;;7.16;100.00;102490.75;4916475;29;20190;-77
2022/10/09 04:19:41;;;;;;;7.95;3.67;;;;;;;7.15;100.00;102489.00;4899540;29;20611;-76
2022/10/09 04:22:10;;;;;;;6.18;3.50;;;;;;;7.13;100.00;102482.78;4886716;29;20051;-76
2022/10/09 04:24:38;;;;;;;7.70;3.30;;;;;;;7.10;100.00;102491.38;4927198;29;20059;-77
2022/10/09 04:27:06;;;;;;;14.88;4.60;;;;;;;7.10;100.00;102495.75;4892383;29;20051;-78
2022/10/09 04:29:35;;;;;;;7.35;3.35;;;;;;;7.08;100.00;102493.06;4905532;29;20438;-76
2022/10/09 04:32:04;;;;;;;10.98;3.97;;;;;;;7.06;100.00;102488.59;4904563;29;20397;-76
2022/10/09 04:34:32;;;;;;;7.45;3.08;;;;;;;7.07;100.00;102493.91;4923762;29;20409;-76
2022/10/09 04:37:01;;;;;;;7.35;3.17;;;;;;;7.06;100.00;102489.47;4873832;29;20040;-76
2022/10/09 04:39:29;;;;;;;7.50;3.22;;;;;;;7.05;100.00;102492.03;4896417;29;20040;-76
2022/10/09 04:41:58;;;;;;;8.15;3.63;;;;;;;7.03;100.00;102486.69;4910128;29;20512;-76
2022/10/09 04:44:26;;;;;;;11.32;4.82;;;;;;;7.02;100.00;102495.41;4889956;29;20052;-76
2022/10/09 04:46:55;;;;;;;6.78;3.50;;;;;;;6.99;100.00;102490.94;4884753;29;20532;-76
2022/10/09 04:49:23;;;;;;;8.02;3.58;;;;;;;6.97;100.00;102484.72;4884510;29;20044;-76
2022/10/09 04:51:51;;;;;;;6.75;4.60;;;;;;;6.97;100.00;102484.72;4893440;29;20054;-76
2022/10/09 04:54:20;;;;;;;8.13;3.80;;;;;;;6.97;100.00;102482.09;4871965;29;20070;-77
2022/10/09 04:56:48;;;;;;;7.40;4.38;;;;;;;6.96;100.00;102488.19;4926642;29;20059;-77
2022/10/09 04:59:16;;;;;;;10.20;4.10;;;;;;;6.93;100.00;102487.13;4889637;29;20364;-75
2022/10/09 05:01:45;;;;;;;7.93;3.92;;;;;;;6.93;100.00;102487.13;4909840;29;20497;-77
2022/10/09 05:04:14;;;;;;;10.43;4.10;;;;;;;6.90;100.00;102477.44;4880381;29;20695;-77
2022/10/09 05:06:42;;;;;;;9.90;5.15;;;;;;;6.87;100.00;102492.13;4909656;29;20074;-77
2022/10/09 05:09:10;;;;;;;8.98;4.72;;;;;;;6.85;100.00;102481.56;4874347;29;20040;-77
2022/10/09 05:11:39;;;;;;;10.98;4.35;;;;;;;6.85;100.00;102484.19;4905214;29;20405;-76
2022/10/09 05:14:09;;;;;;;;;;;;;;;6.83;100.00;102486.72;4908993;29;20048;-77
2022/10/09 05:16:38;;;;;;;9.25;4.35;;;;;;;6.83;100.00;102483.22;4913521;29;19946;-76
2022/10/09 05:19:26;;;;;;;9.00;4.78;;;;;;;6.81;100.00;102488.38;4922227;29;20265;-77
2022/10/09 05:21:54;;;;;;;7.22;5.25;;;;;;;6.80;100.00;102483.06;4928922;29;20058;-77
2022/10/09 05:24:23;;;;;;;8.73;5.10;;;;;;;6.79;100.00;102483.91;4909735;29;20524;-76
2022/10/09 05:26:51;;;;;;;6.25;5.30;;;;;;;6.76;100.00;102484.66;4862439;29;20047;-76
2022/10/09 05:29:20;;;;;;;9.00;5.60;;;;;;;6.74;100.00;102491.56;4907927;29;20231;-76
2022/10/09 05:31:48;;;;;;;10.85;5.95;;;;;;;6.74;100.00;102490.66;4913999;29;20044;-76
2022/10/09 05:34:17;;;;;;;9.43;5.60;;;;;;;6.73;100.00;102489.78;4878181;29;20230;-76
2022/10/09 05:36:46;;;;;;;12.32;6.15;;;;;;;6.71;100.00;102490.50;4929271;29;20048;-76
2022/10/09 05:39:15;;;;;;;13.85;5.55;;;;;;;6.70;100.00;102486.13;4908363;29;20254;-76
2022/10/09 05:41:43;;;;;;;9.98;5.68;;;;;;;6.67;100.00;102489.47;4876777;29;20059;-77
2022/10/09 05:44:11;;;;;;;11.38;5.78;;;;;;;6.67;100.00;102492.09;4907481;29;20063;-76
2022/10/09 05:46:40;;;;;;;13.13;6.20;;;;;;;6.66;100.00;102486.81;4896029;29;20055;-76
2022/10/09 05:49:08;;;;;;;12.23;6.22;;;;;;;6.66;100.00;102497.28;4871359;29;20510;-76
2022/10/09 05:51:38;;;;;;;10.32;6.05;;;;;;;6.64;100.00;102492.88;4895808;29;20054;-76
2022/10/09 05:54:08;;;;;;;9.27;5.63;;;;;;;6.64;100.00;102495.47;4915652;29;20074;-76
2022/10/09 05:56:37;;;;;;;12.73;6.45;;;;;;;6.63;100.00;102498.94;4912488;29;20048;-77
2022/10/09 05:59:08;;;;;;;10.77;6.90;;;;;;;6.64;100.00;102495.47;4876927;29;20044;-77
2022/10/09 06:01:39;;;;;;;13.20;6.63;;;;;;;6.66;100.00;102494.66;4912200;29;20509;-76
2022/10/09 06:04:12;;;;;;;13.88;8.02;;;;;;;6.67;100.00;102494.72;4927194;29;20544;-76
2022/10/09 06:06:41;;;;;;;10.43;6.97;;;;;;;6.68;100.00;102493.00;4893160;29;20047;-76
2022/10/09 06:09:21;;;;;;;13.27;7.43;;;;;;;6.68;100.00;102496.53;4925412;29;20361;-76
2022/10/09 06:11:51;;;;;;;12.65;7.20;;;;;;;6.70;100.00;102488.75;4913935;29;20536;-76
2022/10/09 06:14:20;;;;;;;15.45;7.60;;;;;;;6.70;100.00;102488.75;4837423;29;20079;-78
2022/10/09 06:16:49;;;;;;;13.18;7.25;;;;;;;6.71;100.00;102495.75;4928787;29;20501;-77
2022/10/09 06:19:18;;;;;;;18.88;9.88;;;;;;;6.71;100.00;102493.13;4924602;29;20449;-77
2022/10/09 06:21:47;;;;;;;14.50;8.77;;;;;;;6.71;100.00;102491.44;4905571;29;20057;-77
2022/10/09 06:24:22;;;;;;;13.48;8.57;;;;;;;6.71;100.00;102494.06;4927100;29;20039;-76
2022/10/09 06:26:57;;;;;;;15.15;7.32;;;;;;;6.71;100.00;102498.38;4903047;29;20051;-78
2022/10/09 06:29:25;;;;;;;7.53;6.80;;;;;;;6.72;100.00;102505.41;4889419;29;20338;-76
2022/10/09 06:31:54;;;;;;;14.73;7.10;;;;;;;6.73;100.00;102501.94;4895404;29;20052;-76
2022/10/09 06:34:23;;;;;;;10.77;6.53;;;;;;;6.74;100.00;102501.13;4908816;29;20195;-76
2022/10/09 06:36:51;;;;;;;11.50;7.13;;;;;;;6.75;100.00;102511.69;4906707;29;20052;-76
2022/10/09 06:39:19;;;;;;;10.80;6.50;;;;;;;6.78;100.00;102514.44;4896825;29;20273;-76
2022/10/09 06:41:48;;;;;;;13.05;6.53;;;;;;;6.82;100.00;102510.22;4928521;29;20054;-77
2022/10/09 06:44:35;;;;;;;11.50;7.38;;;;;;;6.85;100.00;102513.00;4879190;29;20490;-77
2022/10/09 06:47:03;;;;;;;14.25;7.32;;;;;;;6.87;100.00;102515.69;4893131;29;20069;-77
2022/10/09 06:49:32;;;;;;;11.20;6.75;;;;;;;6.90;100.00;102516.75;4912478;29;20051;-77
2022/10/09 06:52:00;;;;;;;9.13;6.50;;;;;;;6.93;100.00;102511.63;4887223;29;20051;-77
2022/10/09 06:54:28;;;;;;;12.35;7.38;;;;;;;6.96;100.00;102509.16;4909149;29;20066;-77
2022/10/09 06:56:57;;;;;;;15.05;7.07;;;;;;;7.01;100.00;102511.94;4908863;29;20058;-76
2022/10/09 06:59:25;;;;;;;17.67;7.90;;;;;;;7.07;100.00;102511.31;4908824;29;20047;-76
2022/10/09 07:01:55;;;;;;;10.18;6.88;;;;;;;7.11;100.00;102523.78;4875767;29;20044;-76
2022/10/09 07:04:24;;;;;;;13.38;7.82;;;;;;;7.16;100.00;102511.75;4892977;29;20696;-76
2022/10/09 07:06:52;;;;;;;9.07;6.38;;;;;;;7.21;100.00;102515.47;4912155;29;20048;-76
2022/10/09 07:09:20;;;;;;;12.95;7.28;;;;;;;7.26;100.00;102513.03;4901149;29;20170;-76
2022/10/09 07:11:50;;;;;;;12.27;7.68;;;;;;;7.29;100.00;102514.06;4883281;29;20044;-76
2022/10/09 07:14:18;;;;;;;14.10;7.38;;;;;;;7.34;100.00;102514.28;4898838;29;20059;-77
2022/10/09 07:16:47;;;;;;;20.60;8.70;;;;;;;7.37;100.00;102517.94;4858223;29;20370;-76
2022/10/09 07:19:17;;;;;;;17.05;8.50;;;;;;;7.41;100.00;102513.72;4883970;29;20049;-76
2022/10/09 07:21:47;;;;;;;22.17;10.27;;;;;;;7.46;100.00;102522.66;4901951;29;20040;-76
2022/10/09 07:24:19;;;;;;;16.60;9.90;;;;;;;7.51;100.00;102531.63;4897482;29;20492;-76
2022/10/09 07:26:47;;;;;;;15.00;9.65;;;;;;;7.56;100.00;102519.63;4915212;29;20052;-76
2022/10/09 07:29:17;;;;;;;16.13;9.25;;;;;;;7.64;100.00;102522.56;4902744;29;20052;-77
2022/10/09 07:31:46;;;;;;;16.13;9.73;;;;;;;7.73;100.00;102527.28;4882477;29;20052;-76
2022/10/09 07:34:15;;;;;;;14.65;9.70;;;;;;;7.82;100.00;102522.41;4879922;29;20059;-76
2022/10/09 07:36:43;;;;;;;13.20;9.50;;;;;;;7.92;100.00;102519.34;4911257;29;20048;-77
2022/10/09 07:39:11;;;;;;;15.98;8.23;;;;;;;8.10;100.00;102521.81;4874344;29;20055;-78
2022/10/09 07:41:40;;;;;;;15.10;7.53;;;;;;;8.33;100.00;102521.81;4914545;29;20040;-77
2022/10/09 07:44:09;;;;;;;10.15;8.02;;;;;;;8.65;100.00;102528.34;4889443;29;20046;-77
2022/10/09 07:46:37;;;;;;;10.50;5.78;;;;;;;9.08;100.00;102523.81;4828758;29;20721;-77
2022/10/09 07:49:06;;;;;;;7.72;5.88;;;;;;;9.55;100.00;102525.47;4907585;29;20398;-77
2022/10/09 07:51:34;;;;;;;12.05;5.40;;;;;;;9.98;100.00;102512.84;4874040;29;20249;-76
2022/10/09 07:54:03;;;;;;;6.53;4.15;;;;;;;10.39;100.00;102515.91;4890717;29;20055;-76
2022/10/09 07:56:34;;;;;;;7.95;4.32;;;;;;;10.80;100.00;102516.25;4904633;29;20066;-77
2022/10/09 07:59:05;;;;;;;12.38;5.38;;;;;;;11.17;100.00;102517.28;4908023;29;20040;-77
2022/10/09 08:01:34;;;;;;;8.50;4.43;;;;;;;11.44;100.00;102516.25;4895806;29;20226;-77
2022/10/09 08:04:04;;;;;;;9.13;4.60;;;;;;;11.65;100.00;102522.06;4850853;29;20509;-77
2022/10/09 08:06:33;;;;;;;10.65;4.38;;;;;;;11.89;100.00;102520.91;4882843;29;20133;-76
2022/10/09 08:09:03;;;;;;;5.93;3.70;;;;;;;12.16;100.00;102515.41;4899256;29;20572;-76
2022/10/09 08:11:32;;;;;;;10.00;4.93;;;;;;;12.40;100.00;102509.78;4910147;29;20044;-76
2022/10/09 08:14:00;;;;;;;6.88;3.42;;;;;;;12.63;100.00;102507.63;4882154;29;20244;-76
2022/10/09 08:16:30;;;;;;;9.68;4.07;;;;;;;12.78;100.00;102514.09;4879098;29;20379;-77
2022/10/09 08:19:00;;;;;;;8.70;3.80;;;;;;;12.93;100.00;102510.88;4869412;29;20040;-77
2022/10/09 08:21:28;;;;;;;9.45;3.72;;;;;;;13.08;100.00;102513.84;4915797;29;20803;-77
2022/10/09 08:23:58;;;;;;;7.32;3.50;;;;;;;13.20;100.00;102507.88;4879442;29;20036;-77
2022/10/09 08:26:28;;;;;;;5.28;3.35;;;;;;;13.28;100.00;102506.25;4904228;29;20066;-77
2022/10/09 08:28:59;;;;;;;4.00;3.70;;;;;;;13.34;100.00;102508.16;4896127;29;20498;-77
2022/10/09 08:31:28;;;;;;;5.20;3.22;;;;;;;13.38;100.00;102513.56;4907873;29;20052;-77
2022/10/09 08:34:01;;;;;;;6.93;3.78;;;;;;;13.45;100.00;102511.91;4880698;29;20048;-77
2022/10/09 08:36:30;;;;;;;4.35;3.15;;;;;;;13.48;100.00;102505.75;4907888;29;20044;-77
2022/10/09 08:38:59;;;;;;;5.03;3.47;;;;;;;13.53;100.00;102512.91;4912764;29;20055;-76
2022/10/09 08:41:38;;;;;;;5.97;3.65;;;;;;;13.62;100.00;102504.25;4878542;29;20148;-77
2022/10/09 08:44:16;;;;;;;7.70;4.00;;;;;;;13.64;100.00;102499.88;4906985;29;20516;-77
2022/10/09 08:47:20;;;;;;;5.03;3.15;;;;;;;13.65;100.00;102501.66;4908015;29;20044;-77
2022/10/09 08:50:08;;;;;;;6.68;3.53;;;;;;;13.69;100.00;102495.53;4819472;29;20064;-78
2022/10/09 08:52:45;;;;;;;5.43;3.33;;;;;;;13.70;100.00;102499.06;4896598;29;20187;-79
2022/10/09 08:55:22;;;;;;;5.55;3.38;;;;;;;13.70;100.00;102502.59;4908375;29;20044;-77
2022/10/09 08:57:53;;;;;;;9.00;3.97;;;;;;;13.71;100.00;102495.56;4900117;29;20044;-77
2022/10/09 09:00:26;;;;;;;8.52;3.65;;;;;;;13.72;100.00;102500.00;4904257;29;20457;-77
2022/10/09 09:03:29;;;;;;;11.30;3.60;;;;;;;13.69;100.00;102492.91;4922423;29;20047;-76
2022/10/09 09:06:13;;;;;;;6.40;3.38;;;;;;;13.61;100.00;102506.00;4907374;29;20055;-77
2022/10/09 09:08:57;;;;;;;8.77;3.80;;;;;;;13.51;100.00;102503.19;4926384;29;20115;-77
2022/10/09 09:11:29;;;;;;;10.13;3.40;;;;;;;13.41;100.00;102507.41;4916381;29;20052;-77
2022/10/09 09:14:28;;;;;;;6.32;3.33;;;;;;;13.30;100.00;102493.06;4916783;29;20493;-77
2022/10/09 09:17:18;;;;;;;10.77;4.60;;;;;;;13.22;100.00;102498.22;4920599;29;20106;-77
2022/10/09 09:19:55;;;;;;;10.33;3.93;;;;;;;13.15;100.00;102497.19;4876703;29;20036;-77
2022/10/09 09:22:25;;;;;;;6.63;3.65;;;;;;;13.10;100.00;102493.59;4918072;29;20299;-77
2022/10/09 09:24:55;;;;;;;9.25;3.55;;;;;;;13.06;100.00;102502.31;4933987;29;20505;-76
2022/10/09 09:27:31;;;;;;;12.05;3.92;;;;;;;13.05;100.00;102503.19;4896981;29;20048;-77
2022/10/09 09:30:12;;;;;;;8.57;3.72;;;;;;;13.02;100.00;102496.09;4913268;29;20051;-77
2022/10/09 09:33:11;;;;;;;9.25;3.72;;;;;;;13.04;100.00;102490.81;4901386;29;20497;-77
2022/10/09 09:36:06;;;;;;;8.63;3.42;;;;;;;13.08;100.00;102495.31;4886220;29;20400;-76
2022/10/09 09:38:35;;;;;;;10.82;3.58;;;;;;;13.12;100.00;102491.88;4894746;29;20167;-76
2022/10/09 09:41:24;;;;;;;10.68;3.20;;;;;;;13.14;100.00;102476.91;4884368;29;20036;-77
2022/10/09 09:43:52;;;;;;;11.38;3.38;;;;;;;13.16;100.00;102477.81;4926321;29;20051;-76
2022/10/09 09:46:25;;;;;;;9.50;3.00;;;;;;;13.19;100.00;102480.50;4909053;29;20036;-75
2022/10/09 09:48:54;;;;;;;8.02;2.30;;;;;;;13.24;100.00;102475.31;4887371;29;20051;-75
2022/10/09 09:51:30;;;;;;;7.97;2.33;;;;;;;13.26;100.00;102478.88;4881186;29;20532;-77
2022/10/09 09:54:06;;;;;;;7.03;2.20;;;;;;;13.29;100.00;102476.28;4920413;29;20171;-77
2022/10/09 09:56:40;;;;;;;7.60;2.00;;;;;;;13.32;100.00;102470.19;4909420;29;20047;-83
2022/10/09 09:59:40;;;;;;;8.68;2.47;;;;;;;13.35;100.00;102468.47;4881957;29;20286;-82
2022/10/09 10:02:20;;;;;;;15.05;2.42;;;;;;;13.37;100.00;102460.56;4913680;29;20054;-84
2022/10/09 10:05:14;;;;;;;4.82;2.42;;;;;;;13.41;100.00;102467.69;4912825;29;20528;-83
2022/10/09 10:07:43;;;;;;;6.65;2.30;;;;;;;13.42;100.00;102453.56;4911411;29;20070;-85
2022/10/09 10:10:16;;;;;;;11.40;2.80;;;;;;;13.44;100.00;102458.06;4913822;29;20036;-83
2022/10/09 10:12:51;;;;;;;8.60;2.17;;;;;;;13.51;100.00;102466.09;4917333;29;20047;-82
2022/10/09 10:15:32;;;;;;;5.53;1.88;;;;;;;13.53;100.00;102461.72;4932517;29;20645;-82
2022/10/09 10:18:13;;;;;;;8.70;2.30;;;;;;;13.57;100.00;102460.88;4920116;29;20048;-81
2022/10/09 10:21:10;;;;;;;5.22;2.00;;;;;;;13.61;100.00;102453.03;4933107;29;20657;-80
2022/10/09 10:24:01;;;;;;;6.90;2.17;;;;;;;13.65;100.00;102449.56;4901764;29;20051;-78
2022/10/09 10:26:38;;;;;;;4.97;2.07;;;;;;;13.73;100.00;102451.44;4906213;29;20288;-81
2022/10/09 10:29:10;;;;;;;7.38;2.70;;;;;;;13.81;100.00;102449.81;4895810;29;20040;-82
2022/10/09 10:32:03;;;;;;;5.68;1.90;;;;;;;13.89;100.00;102437.56;4924796;29;20505;-82
2022/10/09 10:34:39;;;;;;;8.68;2.40;;;;;;;13.93;100.00;102439.41;4905206;29;20281;-81
2022/10/09 10:37:13;;;;;;;8.07;2.33;;;;;;;13.97;100.00;102437.66;4921842;29;20036;-81
2022/10/09 10:39:48;;;;;;;6.68;2.28;;;;;;;14.04;100.00;102429.84;4911873;29;20051;-81
2022/10/09 10:42:28;;;;;;;5.53;2.30;;;;;;;14.08;100.00;102428.09;4896356;29;20048;-81
2022/10/09 10:45:08;;;;;;;8.15;2.15;;;;;;;14.11;100.00;102432.56;4912558;29;20393;-81
2022/10/09 10:47:42;;;;;;;10.95;3.13;;;;;;;14.14;100.00;102424.66;4874470;29;20068;-80
2022/10/09 10:50:15;;;;;;;7.47;1.90;;;;;;;14.14;100.00;102422.91;4853823;29;20060;-81
2022/10/09 10:53:11;;;;;;;6.88;1.80;;;;;;;14.15;100.00;102419.38;4846587;29;20057;-80
2022/10/09 10:55:57;;;;;;;4.22;2.00;;;;;;;14.20;100.00;102412.38;4853079;29;23702;-80
2022/10/09 10:58:44;;;;;;;4.75;2.05;;;;;;;14.21;100.00;102414.19;4859007;29;20041;-80
2022/10/09 11:01:30;;;;;;;5.95;2.25;;;;;;;14.23;100.00;102403.56;4851247;29;20070;-79
2022/10/09 11:04:08;;;;;;;3.60;2.05;;;;;;;14.27;100.00;102405.38;4829377;29;20061;-80
2022/10/09 11:07:03;;;;;;;7.32;1.60;;;;;;;14.31;100.00;102398.34;4850348;29;20298;-83
2022/10/09 11:09:38;;;;;;;6.03;1.90;;;;;;;14.35;100.00;102398.44;4852277;29;20059;-82
2022/10/09 11:12:27;;;;;;;3.88;1.85;;;;;;;14.42;100.00;102399.38;4847278;29;20556;-80
2022/10/09 11:15:36;;;;;;;2.95;1.60;;;;;;;14.52;100.00;102395.09;4840950;29;20049;-80
2022/10/09 11:18:04;;;;;;;5.13;1.75;;;;;;;14.62;100.00;102391.69;4891104;29;20051;-80
2022/10/09 11:21:00;;;;;;;7.25;1.90;;;;;;;14.68;100.00;102389.09;4893522;29;20652;-80
2022/10/09 11:23:44;;;;;;;4.72;1.52;;;;;;;14.73;100.00;102384.75;4871754;29;20269;-78
2022/10/09 11:26:43;;;;;;;5.90;2.10;;;;;;;14.78;100.00;102383.03;4925076;29;20047;-80
2022/10/09 11:29:20;;;;;;;7.20;1.98;;;;;;;14.83;100.00;102385.72;4894101;29;20040;-79
2022/10/09 11:32:00;;;;;;;6.65;1.80;;;;;;;14.82;100.00;102368.91;4919720;29;20063;-81
2022/10/09 11:34:40;;;;;;;2.90;1.77;;;;;;;14.77;100.00;102378.59;4912505;29;20263;-76
2022/10/09 11:37:17;;;;;;;5.78;1.60;;;;;;;14.80;100.00;102372.41;4919227;29;20369;-76
2022/10/09 11:39:45;;;;;;;6.43;1.60;;;;;;;14.87;100.00;102365.41;4893367;29;20059;-75
2022/10/09 11:42:20;;;;;;;5.78;1.58;;;;;;;14.92;100.00;102369.88;4900946;29;20052;-76
2022/10/09 11:45:03;;;;;;;8.10;2.20;;;;;;;14.92;100.00;102366.34;4925551;29;20536;-76
2022/10/09 11:47:45;;;;;;;10.50;2.22;;;;;;;14.93;100.00;102362.81;4884152;29;20239;-76